Time;durP1;ratioP1;P1;durP2;ratioP2;P2;SDS_P1;SDS_P2;PMS_P1;PMS_P2;Temp;Humidity;BMP_temperature;BMP_pressure;BME280_temperature;BME280_humidity;BME280_pressure;Samples;Min_cycle;Max_cycle;Signal;HPM_P1;HPM_P2
2021/05/14 00:02:15;;;;;;;46.58;23.52;;;;;;;8.79;100.00;100097.88;5058237;28;20040;-58
2021/05/14 00:04:42;;;;;;;48.65;24.83;;;;;;;8.75;100.00;100091.22;5057685;28;20947;-58
2021/05/14 00:07:10;;;;;;;47.38;24.13;;;;;;;8.70;100.00;100083.72;5059190;28;20040;-58
2021/05/14 00:09:42;;;;;;;38.03;21.30;;;;;;;8.58;100.00;100083.25;5057834;28;20044;-59
2021/05/14 00:12:11;;;;;;;41.15;22.08;;;;;;;8.55;100.00;100086.25;5060301;28;20036;-58
2021/05/14 00:14:39;;;;;;;44.38;23.50;;;;;;;8.60;100.00;100083.06;5054382;28;20041;-57
2021/05/14 00:17:06;;;;;;;54.80;25.88;;;;;;;8.68;100.00;100083.06;5056131;28;20083;-58
2021/05/14 00:19:34;;;;;;;45.70;25.70;;;;;;;8.66;100.00;100081.56;5055430;28;20275;-58
2021/05/14 00:22:01;;;;;;;52.72;25.40;;;;;;;8.63;100.00;100081.91;5057165;28;20052;-58
2021/05/14 00:24:29;;;;;;;53.95;26.13;;;;;;;8.64;100.00;100083.59;5054511;28;20044;-58
2021/05/14 00:26:56;;;;;;;51.08;25.52;;;;;;;8.60;100.00;100081.25;5056977;28;20059;-58
2021/05/14 00:29:23;;;;;;;53.22;26.05;;;;;;;8.64;100.00;100083.59;5057088;28;20049;-58
2021/05/14 00:31:52;;;;;;;66.53;29.30;;;;;;;8.63;100.00;100082.72;5055800;28;20310;-58
2021/05/14 00:34:20;;;;;;;64.03;30.05;;;;;;;8.67;100.00;100077.91;5057802;28;20052;-58
2021/05/14 00:36:48;;;;;;;69.65;31.85;;;;;;;8.75;100.00;100083.22;5059498;28;20183;-59
2021/05/14 00:39:16;;;;;;;67.07;29.58;;;;;;;8.71;100.00;100079.25;5061211;28;20041;-58
2021/05/14 00:41:43;;;;;;;62.17;28.90;;;;;;;8.72;100.00;100080.91;5066955;28;20384;-58
2021/05/14 00:44:27;;;;;;;68.38;29.48;;;;;;;8.72;100.00;100070.28;5059897;28;20045;-58
2021/05/14 00:46:56;;;;;;;72.65;31.73;;;;;;;8.81;100.00;100079.88;5060915;28;20044;-58
2021/05/14 00:49:24;;;;;;;68.45;31.83;;;;;;;8.74;100.00;100078.91;5061296;28;20037;-58
2021/05/14 00:51:51;;;;;;;75.88;32.35;;;;;;;8.70;100.00;100072.25;5062290;28;20040;-58
2021/05/14 00:54:20;;;;;;;72.47;29.45;;;;;;;8.61;100.00;100068.78;5060485;28;20059;-58
2021/05/14 00:56:47;;;;;;;63.63;30.77;;;;;;;8.48;100.00;100071.09;5057092;28;20376;-58
2021/05/14 00:59:14;;;;;;;69.63;29.67;;;;;;;8.50;100.00;100063.81;5059790;28;20044;-61
2021/05/14 01:01:42;;;;;;;66.75;31.02;;;;;;;8.57;100.00;100059.47;5061150;28;20336;-58
2021/05/14 01:04:11;;;;;;;73.13;32.40;;;;;;;8.58;100.00;100053.97;5062573;28;20365;-58
2021/05/14 01:06:38;;;;;;;64.60;30.08;;;;;;;8.71;100.00;100053.44;5058389;28;20045;-58
2021/05/14 01:09:06;;;;;;;70.15;30.52;;;;;;;8.71;100.00;100055.28;5059105;28;20041;-58
2021/05/14 01:11:34;;;;;;;67.72;29.52;;;;;;;8.57;100.00;100062.94;5060087;28;20049;-60
2021/05/14 01:14:01;;;;;;;65.22;29.52;;;;;;;8.48;100.00;100053.31;5059304;28;20376;-58
2021/05/14 01:16:28;;;;;;;81.30;32.00;;;;;;;8.43;100.00;100056.47;5057274;28;20431;-58
2021/05/14 01:18:57;;;;;;;73.32;32.25;;;;;;;8.51;100.00;100058.31;5061847;28;20067;-58
2021/05/14 01:21:26;;;;;;;69.93;31.20;;;;;;;8.55;100.00;100056.97;5060855;28;20041;-57
2021/05/14 01:23:53;;;;;;;72.85;34.55;;;;;;;8.47;100.00;100056.97;5060762;28;20369;-57
2021/05/14 01:26:21;;;;;;;86.40;36.75;;;;;;;8.41;100.00;100063.78;5056325;28;20103;-57
2021/05/14 01:28:49;;;;;;;80.70;35.85;;;;;;;8.36;100.00;100054.63;5059263;28;20494;-58
2021/05/14 01:31:17;;;;;;;76.72;35.15;;;;;;;8.46;100.00;100050.00;5058773;28;20036;-57
2021/05/14 01:33:46;;;;;;;84.55;35.88;;;;;;;8.54;100.00;100060.63;5060397;28;20041;-59
2021/05/14 01:36:14;;;;;;;84.28;36.20;;;;;;;8.66;100.00;100058.47;5058169;28;20044;-58
2021/05/14 01:38:42;;;;;;;95.72;38.55;;;;;;;8.61;100.00;100042.97;5060825;28;20044;-58
2021/05/14 01:41:09;;;;;;;86.88;37.63;;;;;;;8.53;100.00;100043.00;5059381;28;20042;-59
2021/05/14 01:43:37;;;;;;;99.90;40.05;;;;;;;8.46;100.00;100052.66;5060975;28;20053;-58
2021/05/14 01:46:05;;;;;;;83.10;36.78;;;;;;;8.47;100.00;100050.84;5059913;28;20033;-58
2021/05/14 01:48:33;;;;;;;95.53;38.55;;;;;;;8.39;100.00;100054.28;5060179;28;20066;-58
2021/05/14 01:51:16;;;;;;;112.20;41.58;;;;;;;8.36;100.00;100046.66;5062898;28;20041;-59
2021/05/14 01:53:45;;;;;;;110.40;41.55;;;;;;;8.42;100.00;100045.97;5063491;28;20041;-58
2021/05/14 01:56:12;;;;;;;119.68;45.08;;;;;;;8.44;100.00;100043.97;5057823;28;20060;-58
2021/05/14 01:58:40;;;;;;;115.53;44.47;;;;;;;8.48;100.00;100042.69;5058343;28;20090;-58
2021/05/14 02:01:09;;;;;;;118.63;45.00;;;;;;;8.41;100.00;100045.16;5060148;28;20542;-59
2021/05/14 02:03:36;;;;;;;113.85;44.03;;;;;;;8.47;100.00;100042.84;5061281;28;20044;-58
2021/05/14 02:06:04;;;;;;;118.00;45.15;;;;;;;8.58;100.00;100048.66;5058642;28;20037;-58
2021/05/14 02:08:32;;;;;;;108.10;41.95;;;;;;;8.56;100.00;100042.69;5057277;28;20060;-58
2021/05/14 02:11:02;;;;;;;101.43;42.50;;;;;;;8.51;100.00;100037.00;5060589;28;20629;-59
2021/05/14 02:13:29;;;;;;;102.72;42.20;;;;;;;8.69;100.00;100043.97;5062945;28;20094;-58
2021/05/14 02:15:57;;;;;;;96.35;41.13;;;;;;;8.79;100.00;100044.63;5054391;28;20057;-58
2021/05/14 02:18:24;;;;;;;89.72;39.03;;;;;;;9.03;100.00;100041.06;5059606;28;20040;-58
2021/05/14 02:20:52;;;;;;;93.25;40.05;;;;;;;9.04;100.00;100032.03;5061924;28;20708;-58
2021/05/14 02:23:19;;;;;;;82.40;38.10;;;;;;;9.09;100.00;100032.38;5057335;28;20033;-58
2021/05/14 02:25:46;;;;;;;79.93;37.78;;;;;;;9.10;100.00;100035.84;5061107;28;20076;-58
2021/05/14 02:28:15;;;;;;;79.75;36.78;;;;;;;9.20;100.00;100032.97;5060125;28;20045;-58
2021/05/14 02:30:42;;;;;;;83.25;36.85;;;;;;;9.23;100.00;100030.00;5060530;28;20375;-58
2021/05/14 02:33:10;;;;;;;83.63;35.47;;;;;;;9.23;100.00;100035.31;5058461;28;20052;-58
2021/05/14 02:35:38;;;;;;;74.45;34.50;;;;;;;9.10;100.00;100033.19;5056590;28;20136;-59
2021/05/14 02:38:06;;;;;;;79.43;34.78;;;;;;;8.99;100.00;100031.75;5063635;28;20298;-58
2021/05/14 02:40:33;;;;;;;71.03;34.53;;;;;;;8.96;100.00;100029.44;5058467;28;20403;-58
2021/05/14 02:43:01;;;;;;;74.22;34.58;;;;;;;9.10;100.00;100026.03;5060749;28;20040;-59
2021/05/14 02:45:29;;;;;;;78.93;35.03;;;;;;;9.09;100.00;100028.88;5056173;28;20448;-59
2021/05/14 02:47:57;;;;;;;78.63;34.47;;;;;;;9.00;100.00;100029.91;5055712;28;20052;-58
2021/05/14 02:50:25;;;;;;;70.03;35.65;;;;;;;8.98;100.00;100034.59;5060008;28;20041;-59
2021/05/14 02:52:52;;;;;;;72.72;34.92;;;;;;;8.70;100.00;100024.34;5059329;28;20448;-58
2021/05/14 02:55:20;;;;;;;74.60;33.65;;;;;;;8.80;100.00;100030.28;5054024;28;20048;-58
2021/05/14 02:57:47;;;;;;;73.80;34.50;;;;;;;8.74;100.00;100033.66;5059322;28;20502;-59
2021/05/14 03:00:16;;;;;;;72.25;36.30;;;;;;;8.84;100.00;100028.94;5059958;28;20048;-58
2021/05/14 03:02:44;;;;;;;69.10;33.45;;;;;;;9.04;100.00;100029.38;5059704;28;20056;-58
2021/05/14 03:05:12;;;;;;;70.85;33.50;;;;;;;9.14;100.00;100021.19;5059262;28;20052;-59
2021/05/14 03:07:39;;;;;;;74.47;35.70;;;;;;;9.16;100.00;100021.00;5057082;28;20475;-59
2021/05/14 03:10:08;;;;;;;72.28;33.17;;;;;;;9.09;100.00;100024.38;5058696;28;20491;-58
2021/05/14 03:12:36;;;;;;;63.35;32.03;;;;;;;9.06;100.00;100029.22;5057698;28;20033;-58
2021/05/14 03:15:05;;;;;;;64.85;30.73;;;;;;;9.07;100.00;100030.88;5054785;28;20306;-59
2021/05/14 03:17:33;;;;;;;59.42;30.77;;;;;;;9.01;100.00;100027.06;5057956;28;20041;-58
2021/05/14 03:20:01;;;;;;;58.63;28.45;;;;;;;9.04;100.00;100023.22;5059018;28;20131;-58
2021/05/14 03:22:29;;;;;;;57.33;29.48;;;;;;;8.98;100.00;100021.28;5060986;28;20071;-58
2021/05/14 03:24:56;;;;;;;57.95;27.48;;;;;;;8.98;100.00;100022.09;5059589;28;20048;-58
2021/05/14 03:27:24;;;;;;;51.42;26.95;;;;;;;8.94;100.00;100026.09;5056853;28;20040;-58
2021/05/14 03:29:51;;;;;;;51.33;26.83;;;;;;;8.90;100.00;100024.78;5058668;28;20044;-58
2021/05/14 03:32:19;;;;;;;56.45;25.85;;;;;;;8.79;100.00;100029.47;5061252;28;20059;-58
2021/05/14 03:34:46;;;;;;;57.17;27.38;;;;;;;8.62;100.00;100027.88;5055896;28;20570;-58
2021/05/14 03:37:14;;;;;;;46.08;26.30;;;;;;;8.57;100.00;100030.19;5057648;28;20353;-58
2021/05/14 03:39:44;;;;;;;48.42;26.67;;;;;;;8.44;100.00;100031.53;5060215;28;21164;-59
2021/05/14 03:42:15;;;;;;;47.53;23.45;;;;;;;8.30;100.00;100028.69;5059983;28;20041;-59
2021/05/14 03:44:43;;;;;;;43.97;22.48;;;;;;;8.32;100.00;100022.22;5054784;28;20037;-58
2021/05/14 03:47:10;;;;;;;44.85;22.23;;;;;;;8.23;100.00;100023.22;5059882;28;20055;-59
2021/05/14 03:49:39;;;;;;;48.88;23.73;;;;;;;8.03;100.00;100028.03;5057395;28;20052;-58
2021/05/14 03:52:06;;;;;;;42.17;21.50;;;;;;;7.87;100.00;100035.00;5055969;28;20056;-59
2021/05/14 03:54:35;;;;;;;44.17;23.73;;;;;;;7.78;100.00;100028.00;5056982;28;20048;-59
2021/05/14 03:57:03;;;;;;;50.35;21.98;;;;;;;7.62;100.00;100030.66;5062442;28;20041;-59
2021/05/14 03:59:30;;;;;;;38.83;20.60;;;;;;;7.55;100.00;100030.47;5060260;28;20048;-59
2021/05/14 04:01:59;;;;;;;38.95;20.50;;;;;;;7.58;100.00;100030.13;5055365;28;20425;-58
2021/05/14 04:04:28;;;;;;;39.03;20.90;;;;;;;7.58;100.00;100033.63;5057130;28;20345;-58
2021/05/14 04:06:56;;;;;;;37.17;16.77;;;;;;;7.57;100.00;100031.97;5056336;28;20326;-59
2021/05/14 04:09:28;;;;;;;39.03;19.45;;;;;;;7.50;100.00;100033.63;5058841;28;20052;-58
2021/05/14 04:14:38;;;;;;;28.15;14.93;;;;;;;7.40;100.00;100035.59;5050188;28;20055;-59
2021/05/14 04:17:16;;;;;;;29.75;14.75;;;;;;;7.49;100.00;100037.25;5060950;28;20052;-59
2021/05/14 04:19:44;;;;;;;29.77;15.13;;;;;;;7.46;100.00;100047.38;5056332;28;20338;-59
2021/05/14 04:22:11;;;;;;;26.42;15.45;;;;;;;7.52;100.00;100042.25;5058254;28;20045;-58
2021/05/14 04:24:39;;;;;;;30.48;13.45;;;;;;;7.61;100.00;100035.13;5058152;28;20043;-59
2021/05/14 04:27:08;;;;;;;24.15;12.43;;;;;;;7.63;100.00;100049.09;5060180;28;20048;-59
2021/05/14 04:29:35;;;;;;;22.52;12.73;;;;;;;7.62;100.00;100041.28;5056710;28;20048;-58
2021/05/14 04:32:03;;;;;;;20.15;10.50;;;;;;;7.75;100.00;100046.94;5059450;28;20047;-58
2021/05/14 04:34:30;;;;;;;19.20;10.77;;;;;;;7.72;100.00;100039.31;5055800;28;20041;-63
2021/05/14 04:37:03;;;;;;;20.00;10.77;;;;;;;7.69;100.00;100043.09;5058443;28;20063;-59
2021/05/14 04:39:30;;;;;;;17.33;10.98;;;;;;;7.71;100.00;100048.25;5059167;28;20067;-58
2021/05/14 04:41:58;;;;;;;15.45;9.88;;;;;;;7.82;100.00;100050.59;5061032;28;20052;-59
2021/05/14 04:44:28;;;;;;;13.85;9.45;;;;;;;7.83;100.00;100052.28;5058154;28;20091;-59
2021/05/14 04:46:55;;;;;;;15.90;9.80;;;;;;;7.88;100.00;100049.13;5059456;28;20049;-59
2021/05/14 04:49:24;;;;;;;17.48;10.48;;;;;;;8.10;100.00;100047.66;5056120;28;20052;-58
2021/05/14 04:51:51;;;;;;;24.65;11.38;;;;;;;8.15;100.00;100048.00;5059886;28;20306;-59
2021/05/14 04:54:20;;;;;;;14.35;9.05;;;;;;;8.54;100.00;100049.16;5058597;28;20045;-59
2021/05/14 04:56:47;;;;;;;15.95;9.93;;;;;;;8.89;100.00;100047.09;5058970;28;20400;-59
2021/05/14 04:59:15;;;;;;;16.45;8.68;;;;;;;9.27;100.00;100042.78;5057819;28;20055;-58
2021/05/14 05:01:43;;;;;;;21.00;10.13;;;;;;;9.41;100.00;100038.56;5058724;28;20422;-59
2021/05/14 05:04:17;;;;;;;14.98;8.77;;;;;;;9.45;100.00;100039.03;5057864;28;20045;-59
2021/05/14 05:06:45;;;;;;;11.63;8.02;;;;;;;9.89;100.00;100040.28;5053510;28;20274;-59
2021/05/14 05:09:12;;;;;;;13.88;8.13;;;;;;;10.22;100.00;100040.00;5054969;28;20048;-59
2021/05/14 05:11:40;;;;;;;12.68;7.55;;;;;;;10.41;100.00;100041.41;5060184;28;20348;-58
2021/05/14 05:14:07;;;;;;;11.75;7.65;;;;;;;10.37;100.00;100035.56;5056629;28;20052;-59
2021/05/14 05:16:34;;;;;;;10.65;7.28;;;;;;;10.75;100.00;100042.72;5056890;28;20037;-59
2021/05/14 05:19:03;;;;;;;11.50;7.60;;;;;;;11.11;100.00;100044.66;5054577;28;20049;-59
2021/05/14 05:21:31;;;;;;;9.48;5.72;;;;;;;11.08;100.00;100055.72;5059402;28;20045;-59
2021/05/14 05:23:58;;;;;;;10.40;6.00;;;;;;;11.17;100.00;100054.59;5062051;28;20048;-59
2021/05/14 05:26:27;;;;;;;9.00;6.45;;;;;;;11.29;100.00;100047.75;5060542;28;20037;-59
2021/05/14 05:28:55;;;;;;;10.07;6.03;;;;;;;11.49;100.00;100047.19;5061082;28;20049;-59
2021/05/14 05:31:22;;;;;;;8.23;5.60;;;;;;;11.25;100.00;100051.81;5064942;28;20456;-59
2021/05/14 05:33:50;;;;;;;9.05;6.07;;;;;;;11.60;100.00;100060.06;5062719;28;20392;-59
2021/05/14 05:36:18;;;;;;;9.38;5.38;;;;;;;11.39;100.00;100050.16;5058598;28;20196;-59
2021/05/14 05:38:46;;;;;;;7.45;5.28;;;;;;;11.50;100.00;100054.19;5059904;28;20060;-59
2021/05/14 05:41:15;;;;;;;7.82;5.00;;;;;;;11.24;100.00;100060.03;5063696;28;20051;-59
2021/05/14 05:43:43;;;;;;;6.93;5.38;;;;;;;11.23;100.00;100058.38;5061407;28;20036;-60
2021/05/14 05:46:11;;;;;;;7.78;5.20;;;;;;;12.45;100.00;100060.31;5059812;28;20348;-59
2021/05/14 05:48:39;;;;;;;9.52;5.15;;;;;;;12.38;100.00;100065.59;5059457;28;20440;-59
2021/05/14 05:51:09;;;;;;;7.80;4.90;;;;;;;13.12;100.00;100060.72;5061194;28;20620;-59
2021/05/14 05:53:37;;;;;;;5.95;4.75;;;;;;;12.91;100.00;100067.00;5063298;28;20058;-59
2021/05/14 05:56:05;;;;;;;6.93;4.68;;;;;;;12.32;100.00;100062.84;5061593;28;20044;-59
2021/05/14 05:58:32;;;;;;;6.93;4.50;;;;;;;13.46;100.00;100064.44;5061348;28;20044;-59
2021/05/14 06:01:01;;;;;;;6.43;4.18;;;;;;;12.91;100.00;100072.34;5061044;28;20364;-60
2021/05/14 06:03:28;;;;;;;6.63;3.97;;;;;;;13.48;100.00;100064.22;5060478;28;20041;-59
2021/05/14 06:05:55;;;;;;;6.32;4.30;;;;;;;13.83;100.00;100072.19;5060762;28;20040;-59
2021/05/14 06:08:24;;;;;;;5.80;4.25;;;;;;;12.99;100.00;100063.34;5058458;28;20051;-59
2021/05/14 06:10:53;;;;;;;8.25;4.80;;;;;;;12.57;100.00;100077.50;5061424;28;20098;-59
2021/05/14 06:13:21;;;;;;;6.78;4.28;;;;;;;13.94;100.00;100076.97;5061804;28;20044;-59
2021/05/14 06:15:51;;;;;;;9.63;4.53;;;;;;;14.02;100.00;100082.16;5061680;28;20075;-59
2021/05/14 06:18:20;;;;;;;5.93;4.63;;;;;;;14.62;100.00;100078.69;5060078;28;20037;-59
2021/05/14 06:20:48;;;;;;;6.82;5.03;;;;;;;15.04;100.00;100081.94;5061168;28;20044;-59
2021/05/14 06:23:16;;;;;;;7.15;4.03;;;;;;;15.73;100.00;100079.59;5060723;28;20374;-59
2021/05/14 06:25:43;;;;;;;7.72;4.53;;;;;;;16.42;100.00;100082.50;5056976;28;20558;-59
2021/05/14 06:28:18;;;;;;;6.22;4.90;;;;;;;15.19;100.00;100080.88;5056447;28;20044;-59
2021/05/14 06:30:45;;;;;;;7.60;4.97;;;;;;;14.15;100.00;100085.84;5062189;28;20041;-59
2021/05/14 06:33:12;;;;;;;7.07;4.90;;;;;;;15.33;100.00;100085.16;5059903;28;20041;-59
2021/05/14 06:35:41;;;;;;;5.68;4.15;;;;;;;15.97;100.00;100085.31;5057778;28;20041;-59
2021/05/14 06:38:08;;;;;;;7.10;4.07;;;;;;;15.56;100.00;100086.53;5061582;28;20071;-59
2021/05/14 06:40:36;;;;;;;8.85;5.57;;;;;;;14.61;100.00;100085.06;5064623;28;20048;-59
2021/05/14 06:43:03;;;;;;;5.15;4.45;;;;;;;15.56;100.00;100083.84;5060069;28;20045;-59
2021/05/14 06:45:32;;;;;;;7.60;4.30;;;;;;;16.44;100.00;100099.28;5060717;28;20052;-59
2021/05/14 06:48:03;;;;;;;10.85;4.78;;;;;;;15.27;100.00;100100.28;5064096;28;20082;-60
2021/05/14 06:50:30;;;;;;;7.68;4.93;;;;;;;16.42;100.00;100098.69;5064380;28;20052;-60
2021/05/14 06:52:58;;;;;;;5.13;4.28;;;;;;;17.42;100.00;100098.78;5060685;28;20047;-59
2021/05/14 06:55:26;;;;;;;6.30;4.15;;;;;;;17.19;100.00;100103.78;5060367;28;20044;-59
2021/05/14 06:57:53;;;;;;;7.95;4.65;;;;;;;16.25;100.00;100109.16;5060137;28;20056;-59
2021/05/14 07:00:21;;;;;;;7.38;4.47;;;;;;;17.27;100.00;100099.19;5059299;28;20314;-59
2021/05/14 07:02:49;;;;;;;5.85;4.82;;;;;;;16.74;100.00;100103.19;5056897;28;20343;-60
2021/05/14 07:05:17;;;;;;;6.22;4.75;;;;;;;17.98;100.00;100094.97;5058367;28;20041;-59
2021/05/14 07:07:45;;;;;;;7.43;4.82;;;;;;;18.17;100.00;100106.56;5060541;28;20189;-60
2021/05/14 07:10:12;;;;;;;8.25;5.93;;;;;;;17.43;100.00;100103.94;5059987;28;20045;-59
2021/05/14 07:12:40;;;;;;;6.28;4.82;;;;;;;17.33;100.00;100104.47;5059905;28;20347;-59
2021/05/14 07:15:09;;;;;;;7.60;4.85;;;;;;;16.45;100.00;100111.72;5058701;28;20051;-59
2021/05/14 07:17:37;;;;;;;8.45;5.28;;;;;;;16.83;100.00;100107.25;5058890;28;20044;-59
2021/05/14 07:20:07;;;;;;;5.68;4.20;;;;;;;18.12;100.00;100106.41;5059600;28;20079;-59
2021/05/14 07:22:35;;;;;;;7.68;5.07;;;;;;;18.45;100.00;100107.78;5061271;28;20202;-60
2021/05/14 07:25:03;;;;;;;6.97;5.18;;;;;;;17.54;100.00;100108.59;5058839;28;20044;-59
2021/05/14 07:27:31;;;;;;;5.90;4.88;;;;;;;17.73;100.00;100106.72;5059822;28;20044;-59
2021/05/14 07:29:59;;;;;;;8.65;6.20;;;;;;;19.16;100.00;100107.00;5059649;28;20036;-59
2021/05/14 07:32:26;;;;;;;5.22;4.35;;;;;;;19.63;100.00;100111.50;5056589;28;20408;-59
2021/05/14 07:34:55;;;;;;;6.13;4.68;;;;;;;20.35;100.00;100118.28;5058420;28;20325;-59
2021/05/14 07:37:23;;;;;;;7.70;5.07;;;;;;;19.32;100.00;100125.22;5058196;28;20041;-59
2021/05/14 07:39:50;;;;;;;6.95;5.88;;;;;;;17.80;100.00;100124.69;5060650;28;20542;-59
2021/05/14 07:42:18;;;;;;;7.78;4.70;;;;;;;17.60;100.00;100124.94;5061553;28;20052;-59
2021/05/14 07:44:45;;;;;;;8.65;4.85;;;;;;;16.93;100.00;100128.38;5059750;28;20052;-59
2021/05/14 07:47:12;;;;;;;6.38;4.22;;;;;;;17.63;100.00;100125.31;5062830;28;20059;-59
2021/05/14 07:49:41;;;;;;;8.35;4.95;;;;;;;17.68;100.00;100127.34;5060680;28;20051;-59
2021/05/14 07:52:09;;;;;;;7.28;5.47;;;;;;;16.68;100.00;100135.38;5057529;28;20091;-59
2021/05/14 07:54:37;;;;;;;8.18;4.90;;;;;;;16.37;100.00;100136.22;5062296;28;20040;-59
2021/05/14 07:57:05;;;;;;;7.35;5.32;;;;;;;17.00;100.00;100131.81;5057360;28;20313;-60
2021/05/14 07:59:32;;;;;;;7.40;4.88;;;;;;;17.52;100.00;100129.59;5057948;28;20418;-59
2021/05/14 08:02:00;;;;;;;6.13;4.68;;;;;;;19.38;100.00;100128.88;5060947;28;20055;-59
2021/05/14 08:04:27;;;;;;;5.28;4.40;;;;;;;19.48;100.00;100131.78;5054815;28;20053;-59
2021/05/14 08:06:56;;;;;;;5.70;4.30;;;;;;;17.40;100.00;100136.78;5053482;28;20064;-59
2021/05/14 08:09:24;;;;;;;7.18;4.78;;;;;;;16.73;100.00;100136.56;5058227;28;20049;-59
2021/05/14 08:11:53;;;;;;;7.13;5.25;;;;;;;16.69;100.00;100137.00;5058375;28;20325;-59
2021/05/14 08:14:20;;;;;;;5.63;4.72;;;;;;;16.57;100.00;100140.66;5057622;28;20052;-59
2021/05/14 08:16:48;;;;;;;6.20;4.47;;;;;;;18.44;100.00;100137.75;5056007;28;20055;-59
2021/05/14 08:19:15;;;;;;;8.55;4.28;;;;;;;17.39;100.00;100140.53;5059914;28;20048;-59
2021/05/14 08:21:44;;;;;;;6.45;4.10;;;;;;;18.38;100.00;100140.31;5056598;28;20041;-59
2021/05/14 08:24:12;;;;;;;5.97;4.20;;;;;;;18.08;100.00;100137.63;5058847;28;20450;-59
2021/05/14 08:26:40;;;;;;;5.63;3.92;;;;;;;17.51;100.00;100138.75;5058218;28;20069;-59
2021/05/14 08:29:09;;;;;;;6.45;3.88;;;;;;;16.62;100.00;100141.63;5059418;28;20041;-58
2021/05/14 08:31:39;;;;;;;5.63;3.67;;;;;;;16.68;100.00;100150.72;5063538;28;20044;-59
2021/05/14 08:34:08;;;;;;;4.65;3.50;;;;;;;16.64;100.00;100136.03;5060104;28;20041;-59
2021/05/14 08:36:35;;;;;;;6.05;4.03;;;;;;;16.46;100.00;100148.41;5057180;28;20336;-59
2021/05/14 08:39:03;;;;;;;7.43;4.10;;;;;;;15.75;100.00;100141.28;5057200;28;20098;-59
2021/05/14 08:41:31;;;;;;;6.53;3.63;;;;;;;16.40;100.00;100149.28;5061063;28;20037;-59
2021/05/14 08:43:59;;;;;;;6.15;3.80;;;;;;;15.97;100.00;100141.84;5060993;28;20554;-59
2021/05/14 08:46:28;;;;;;;5.95;3.63;;;;;;;16.05;100.00;100141.63;5056795;28;20045;-59
2021/05/14 08:49:08;;;;;;;6.53;4.95;;;;;;;16.79;100.00;100149.19;5059973;28;20052;-59
2021/05/14 08:51:35;;;;;;;7.03;4.03;;;;;;;16.81;100.00;100150.63;5064498;28;20041;-59
2021/05/14 08:54:05;;;;;;;4.97;2.88;;;;;;;15.36;100.00;100152.00;5054030;28;20046;-59
2021/05/14 08:56:33;;;;;;;7.18;3.22;;;;;;;16.31;100.00;100156.78;5059711;28;20055;-59
2021/05/14 08:59:00;;;;;;;5.28;3.13;;;;;;;16.15;100.00;100150.03;5062486;28;20134;-59
2021/05/14 09:01:29;;;;;;;6.10;3.28;;;;;;;15.84;100.00;100148.94;5063707;28;20044;-59
2021/05/14 09:04:01;;;;;;;5.10;3.20;;;;;;;15.99;100.00;100151.38;5064299;28;20127;-59
2021/05/14 09:06:34;;;;;;;6.55;3.45;;;;;;;15.64;100.00;100157.09;5062902;28;20040;-59
2021/05/14 09:09:04;;;;;;;7.43;3.50;;;;;;;17.53;100.00;100155.53;5061835;28;20392;-59
2021/05/14 09:11:37;;;;;;;5.68;3.90;;;;;;;19.89;100.00;100159.72;5062728;28;20073;-60
2021/05/14 09:14:05;;;;;;;6.82;4.00;;;;;;;17.69;100.00;100150.56;5062138;28;20418;-59
2021/05/14 09:16:44;;;;;;;5.47;3.33;;;;;;;16.42;100.00;100152.56;5064305;28;20560;-59
2021/05/14 09:19:11;;;;;;;11.80;4.05;;;;;;;16.14;100.00;100151.06;5064038;28;20341;-59
2021/05/14 09:21:44;;;;;;;6.93;3.78;;;;;;;16.59;100.00;100147.47;5065121;28;20051;-59
2021/05/14 09:24:11;;;;;;;6.40;3.78;;;;;;;15.62;100.00;100153.78;5062794;28;20417;-59
2021/05/14 09:26:39;;;;;;;7.18;4.25;;;;;;;15.86;100.00;100156.00;5060196;28;20048;-59
2021/05/14 09:29:40;;;;;;;6.53;3.75;;;;;;;16.73;100.00;100153.59;5060826;28;20036;-59
2021/05/14 09:32:22;;;;;;;9.90;5.85;;;;;;;15.70;100.00;100159.97;5059252;28;20052;-59
2021/05/14 09:34:51;;;;;;;9.82;5.43;;;;;;;17.09;100.00;100165.53;5062833;28;20073;-59
2021/05/14 09:37:19;;;;;;;9.82;5.47;;;;;;;16.27;100.00;100160.13;5059926;28;20386;-59
2021/05/14 09:39:46;;;;;;;7.90;5.07;;;;;;;17.55;100.00;100160.72;5063156;28;20043;-59
2021/05/14 09:42:30;;;;;;;14.10;5.70;;;;;;;15.23;100.00;100157.41;5062338;28;20055;-59
2021/05/14 09:45:13;;;;;;;7.50;4.55;;;;;;;15.88;100.00;100165.50;5060713;28;20031;-59
2021/05/14 09:47:41;;;;;;;6.63;5.05;;;;;;;16.04;100.00;100160.69;5062666;28;20045;-59
2021/05/14 09:50:27;;;;;;;10.40;6.00;;;;;;;15.87;100.00;100165.72;5063375;28;20160;-60
2021/05/14 09:53:08;;;;;;;11.57;6.80;;;;;;;16.26;100.00;100161.16;5058781;28;20055;-60
2021/05/14 09:55:36;;;;;;;12.40;8.20;;;;;;;16.99;100.00;100151.72;5058405;28;20054;-59
2021/05/14 09:58:18;;;;;;;12.50;6.25;;;;;;;18.34;100.00;100162.63;5065256;28;20063;-58
2021/05/14 10:00:46;;;;;;;8.50;5.70;;;;;;;20.57;100.00;100167.16;5061042;28;20052;-58
2021/05/14 10:03:16;;;;;;;9.60;5.88;;;;;;;17.92;100.00;100158.00;5059899;28;20045;-60
2021/05/14 10:05:45;;;;;;;7.35;5.65;;;;;;;19.07;100.00;100156.06;5059062;28;20037;-58
2021/05/14 10:08:15;;;;;;;8.63;5.15;;;;;;;19.71;100.00;100149.84;5057484;28;20037;-60
2021/05/14 10:10:42;;;;;;;5.90;4.47;;;;;;;16.79;100.00;100147.31;5062617;28;20123;-60
2021/05/14 10:13:10;;;;;;;5.85;4.47;;;;;;;16.91;100.00;100152.84;5060564;28;20067;-59
2021/05/14 10:15:38;;;;;;;5.75;4.15;;;;;;;16.89;100.00;100154.13;5061490;28;20071;-59
2021/05/14 10:18:08;;;;;;;4.95;3.92;;;;;;;17.43;100.00;100152.53;5057415;28;20352;-59
2021/05/14 10:20:37;;;;;;;7.45;4.13;;;;;;;18.69;100.00;100153.78;5059083;28;20048;-59
2021/05/14 10:23:06;;;;;;;7.32;3.63;;;;;;;16.99;100.00;100154.44;5063212;28;20049;-59
2021/05/14 10:25:46;;;;;;;5.18;3.55;;;;;;;16.95;100.00;100154.03;5062352;28;20036;-59
2021/05/14 10:28:15;;;;;;;7.25;4.88;;;;;;;17.84;100.00;100153.69;5059514;28;20051;-59
2021/05/14 10:31:17;;;;;;;9.48;6.00;;;;;;;19.32;100.00;100154.16;5064364;28;20040;-59
2021/05/14 10:33:46;;;;;;;12.40;6.32;;;;;;;15.72;100.00;100160.56;5060589;28;20128;-59
2021/05/14 10:36:42;;;;;;;10.73;6.55;;;;;;;16.91;100.00;100152.84;5056033;28;20467;-60
2021/05/14 10:39:13;;;;;;;12.18;6.22;;;;;;;16.76;100.00;100158.53;5060466;28;20059;-59
2021/05/14 10:41:51;;;;;;;8.73;5.97;;;;;;;16.70;100.00;100152.16;5056479;28;20045;-59
2021/05/14 10:44:55;;;;;;;8.93;5.68;;;;;;;18.38;100.00;100147.59;5058482;28;20110;-60
2021/05/14 10:47:47;;;;;;;9.07;5.38;;;;;;;18.50;100.00;100144.91;5057227;28;20052;-59
2021/05/14 10:50:33;;;;;;;8.23;5.75;;;;;;;21.46;100.00;100143.81;5062907;28;20437;-59
2021/05/14 10:53:35;;;;;;;9.27;4.57;;;;;;;18.06;100.00;100139.75;5059966;28;20049;-59
2021/05/14 10:56:43;;;;;;;7.15;5.20;;;;;;;18.50;100.00;100140.34;5058144;28;20068;-59
2021/05/14 10:59:11;;;;;;;7.22;5.40;;;;;;;17.37;100.00;100137.25;5061004;28;20440;-58
2021/05/14 11:01:40;;;;;;;8.30;5.30;;;;;;;20.95;100.00;100139.34;5058047;28;20111;-58
2021/05/14 11:04:38;;;;;;;9.63;5.05;;;;;;;21.83;100.00;100135.91;5058732;28;20090;-59
2021/05/14 11:07:05;;;;;;;7.03;5.47;;;;;;;16.81;100.00;100134.44;5046591;28;20321;-58
2021/05/14 11:09:34;;;;;;;6.75;4.70;;;;;;;18.04;100.00;100136.44;5061678;28;20048;-59
2021/05/14 11:12:05;;;;;;;6.00;4.25;;;;;;;18.18;100.00;100143.31;5058511;28;20041;-59
2021/05/14 11:14:43;;;;;;;6.65;4.90;;;;;;;18.49;100.00;100136.00;5057476;28;20046;-58
2021/05/14 11:17:11;;;;;;;5.13;4.38;;;;;;;18.70;100.00;100133.81;5057373;28;20424;-59
2021/05/14 11:19:47;;;;;;;5.18;4.05;;;;;;;19.03;100.00;100135.13;5057733;28;20071;-59
2021/05/14 11:22:15;;;;;;;6.30;4.70;;;;;;;20.84;100.00;100134.00;5058865;28;20051;-58
2021/05/14 11:24:49;;;;;;;7.25;4.95;;;;;;;17.42;100.00;100131.16;5058033;28;20045;-58
2021/05/14 11:27:19;;;;;;;5.97;4.90;;;;;;;18.10;100.00;100132.00;5057004;28;20413;-58